createdAt,value
2019-05-15T00:00:49.625Z,4.99
2019-05-15T00:05:51.740Z,4.87
2019-05-15T00:10:54.106Z,4.85
2019-05-15T00:15:58.871Z,4.81
2019-05-15T00:21:00.338Z,4.81
2019-05-15T00:26:02.719Z,4.82
2019-05-15T00:31:05.807Z,4.92
2019-05-15T00:36:08.638Z,4.92
2019-05-15T00:41:11.014Z,4.91
2019-05-15T00:46:13.043Z,4.93
2019-05-15T00:51:15.160Z,4.93
2019-05-15T00:56:19.275Z,4.85
2019-05-15T01:01:21.369Z,4.82
2019-05-15T01:06:23.452Z,4.78
2019-05-15T01:11:25.589Z,4.65
2019-05-15T01:16:28.250Z,4.59
2019-05-15T01:21:30.382Z,4.51
2019-05-15T01:26:32.480Z,4.44
2019-05-15T01:31:34.543Z,4.34
2019-05-15T01:36:38.219Z,4.26
2019-05-15T01:41:40.664Z,4.25
2019-05-15T01:46:42.963Z,4.23
2019-05-15T01:51:44.968Z,4.20
2019-05-15T01:56:49.241Z,4.11
2019-05-15T02:01:51.369Z,3.95
2019-05-15T02:06:53.463Z,3.54
2019-05-15T02:11:58.108Z,3.29
2019-05-15T02:17:00.369Z,3.28
2019-05-15T02:22:02.353Z,3.27
2019-05-15T02:27:04.546Z,3.24
2019-05-15T02:32:09.954Z,3.25
2019-05-15T02:37:10.753Z,3.19
2019-05-15T02:42:14.510Z,3.20
2019-05-15T02:47:19.918Z,3.17
2019-05-15T02:52:21.641Z,3.02
2019-05-15T02:57:23.729Z,2.99
2019-05-15T03:02:28.470Z,3.02
2019-05-15T03:07:29.944Z,3.03
2019-05-15T03:12:32.215Z,2.99
2019-05-15T03:17:35.324Z,2.95
2019-05-15T03:22:39.986Z,2.76
2019-05-15T03:27:41.719Z,2.79
2019-05-15T03:32:53.879Z,2.71
2019-05-15T03:37:49.241Z,2.65
2019-05-15T03:42:52.525Z,2.57
2019-05-15T03:47:54.650Z,2.53
2019-05-15T03:52:58.901Z,2.54
2019-05-15T03:58:00.854Z,2.56
2019-05-15T04:03:03.949Z,2.45
2019-05-15T04:08:06.238Z,2.33
2019-05-15T04:13:09.680Z,2.25
2019-05-15T04:18:11.955Z,2.25
2019-05-15T04:23:20.522Z,2.29
2019-05-15T04:28:24.241Z,2.19
2019-05-15T04:33:29.361Z,2.07
2019-05-15T04:38:30.294Z,2.11
2019-05-15T04:43:41.542Z,2.06
2019-05-15T04:48:39.590Z,2.08
2019-05-15T04:53:40.732Z,2.18
2019-05-15T04:58:43.227Z,2.40
2019-05-15T05:03:45.284Z,2.63
2019-05-15T05:08:49.065Z,3.15
2019-05-15T05:13:51.513Z,3.91
2019-05-15T05:18:53.501Z,4.40
2019-05-15T05:23:55.692Z,4.74
2019-05-15T05:29:01.352Z,4.63
2019-05-15T05:34:02.020Z,4.67
2019-05-15T05:39:05.476Z,4.70
2019-05-15T05:44:08.188Z,4.70
2019-05-15T05:49:10.529Z,4.74
2019-05-15T05:54:12.942Z,4.81
2019-05-15T05:59:15.127Z,4.90
2019-05-15T06:04:19.039Z,5.01
2019-05-15T06:09:21.232Z,5.16
2019-05-15T06:14:23.397Z,5.33
2019-05-15T06:19:27.650Z,5.41
2019-05-15T06:24:30.654Z,5.51
2019-05-15T06:29:32.970Z,5.62
2019-05-15T06:34:35.062Z,5.77
2019-05-15T06:39:39.118Z,5.93
2019-05-15T06:44:41.387Z,6.09
2019-05-15T06:49:43.585Z,6.18
2019-05-15T06:54:45.657Z,6.28
2019-05-15T06:59:48.884Z,6.48
2019-05-15T07:04:50.873Z,6.60
2019-05-15T07:09:52.908Z,6.68
2019-05-15T07:14:55.490Z,6.77
2019-05-15T07:19:59.187Z,6.86
2019-05-15T07:25:01.486Z,6.97
2019-05-15T07:30:04.784Z,7.07
2019-05-15T07:35:08.424Z,7.24
2019-05-15T07:40:13.445Z,8.05
2019-05-15T07:45:19.581Z,7.88
2019-05-15T07:50:20.719Z,7.80
2019-05-15T07:55:22.820Z,7.91
2019-05-15T08:00:25.468Z,7.95
2019-05-15T08:05:28.531Z,7.92
2019-05-15T08:10:30.796Z,8.06
2019-05-15T08:15:32.985Z,8.09
2019-05-15T08:20:34.997Z,8.08
2019-05-15T08:25:38.914Z,8.14
2019-05-15T08:30:41.089Z,8.17
2019-05-15T08:35:47.470Z,8.33
2019-05-15T08:40:48.975Z,8.51
2019-05-15T08:45:52.492Z,8.72
2019-05-15T08:50:57.864Z,8.83
2019-05-15T08:56:00.477Z,8.89
2019-05-15T09:01:02.690Z,9.10
2019-05-15T09:06:04.912Z,9.16
2019-05-15T09:11:08.891Z,9.22
2019-05-15T09:16:11.588Z,9.51
2019-05-15T09:21:13.788Z,9.49
2019-05-15T09:26:19.248Z,9.62
2019-05-15T09:31:20.082Z,9.64
2019-05-15T09:36:22.192Z,9.63
2019-05-15T09:41:24.484Z,9.81
2019-05-15T09:46:28.992Z,10.01
2019-05-15T09:51:30.638Z,9.97
2019-05-15T09:56:34.322Z,10.26
2019-05-15T10:01:39.248Z,10.40
2019-05-15T10:06:40.568Z,10.45
2019-05-15T10:11:42.710Z,10.50
2019-05-15T10:16:45.482Z,10.40
2019-05-15T10:26:49.237Z,10.94
2019-05-15T10:31:51.603Z,11.03
2019-05-15T10:36:53.603Z,11.21
2019-05-15T10:41:55.850Z,11.16
2019-05-15T10:46:58.578Z,11.35
2019-05-15T10:52:00.710Z,11.49
2019-05-15T10:57:05.213Z,11.67
2019-05-15T11:02:08.587Z,11.65
2019-05-15T11:07:11.013Z,11.65
2019-05-15T11:12:13.134Z,11.64
2019-05-15T11:17:15.521Z,11.64
2019-05-15T11:22:18.806Z,11.86
2019-05-15T11:27:21.307Z,11.87
2019-05-15T11:32:23.513Z,11.78
2019-05-15T11:37:28.090Z,11.71
2019-05-15T11:42:30.045Z,11.65
2019-05-15T11:47:32.346Z,11.50
2019-05-15T11:52:36.592Z,11.56
2019-05-15T11:57:46.015Z,11.60
2019-05-15T12:02:42.634Z,11.89
2019-05-15T12:07:47.791Z,12.23
2019-05-15T12:12:49.804Z,12.24
2019-05-15T12:17:52.004Z,12.24
2019-05-15T12:22:54.055Z,12.46
2019-05-15T12:27:56.179Z,12.49
2019-05-15T12:33:00.179Z,12.56
2019-05-15T12:38:02.320Z,12.55
2019-05-15T13:03:20.572Z,12.61
2019-05-15T13:08:22.582Z,12.58
2019-05-15T13:13:24.694Z,12.72
2019-05-15T13:18:28.634Z,12.70
2019-05-15T13:23:30.799Z,12.76
2019-05-15T13:28:32.816Z,12.88
2019-05-15T13:33:38.429Z,13.02
2019-05-15T13:38:40.092Z,13.06
2019-05-15T13:43:43.027Z,13.12
2019-05-15T13:48:45.277Z,13.25
2019-05-15T13:53:49.077Z,13.29
2019-05-15T13:58:51.366Z,13.37
2019-05-15T14:03:53.664Z,13.36
2019-05-15T14:15:00.686Z,13.18
2019-05-15T14:20:03.488Z,13.27
2019-05-15T14:25:08.587Z,13.29
2019-05-15T14:30:10.874Z,13.30
2019-05-15T14:35:13.074Z,13.14
2019-05-15T14:40:17.694Z,13.06
2019-05-15T14:45:19.812Z,13.09
2019-05-15T14:50:21.880Z,13.18
2019-05-15T14:55:25.302Z,13.32
2019-05-15T15:00:30.154Z,13.33
2019-05-15T15:05:31.534Z,13.28
2019-05-15T15:10:33.509Z,13.34
2019-05-15T15:15:37.533Z,13.48
2019-05-15T15:20:40.099Z,13.51
2019-05-15T15:25:42.123Z,13.71
2019-05-15T15:30:44.315Z,13.70
2019-05-15T16:15:49.770Z,15.42
2019-05-15T16:20:51.799Z,13.97
2019-05-15T16:29:51.649Z,13.44
2019-05-15T16:34:53.655Z,13.22
2019-05-15T16:39:57.799Z,13.15
2019-05-15T16:47:30.392Z,13.27
2019-05-15T16:52:33.618Z,13.05
2019-05-15T16:57:38.612Z,13.12
2019-05-15T17:02:41.089Z,12.94
2019-05-15T17:07:43.502Z,12.89
2019-05-15T17:12:45.702Z,12.80
2019-05-15T17:17:48.735Z,12.61
2019-05-15T17:22:51.037Z,12.53
2019-05-15T17:27:53.135Z,12.48
2019-05-15T17:32:55.155Z,12.48
2019-05-15T17:37:58.149Z,12.52
2019-05-15T17:43:02.634Z,12.47
2019-05-15T17:48:04.584Z,12.47
2019-05-15T17:53:06.760Z,12.39
2019-05-15T17:58:09.358Z,12.37
2019-05-15T20:15:09.114Z,13.40
2019-05-15T20:20:13.528Z,12.04
2019-05-15T20:25:15.667Z,11.43
2019-05-15T20:30:18.176Z,11.15
2019-05-15T20:35:20.222Z,11.02
2019-05-15T20:40:22.601Z,10.89
2019-05-15T20:45:24.786Z,10.76
2019-05-15T20:50:28.202Z,10.70
2019-05-15T20:55:31.873Z,10.64
2019-05-15T21:00:34.111Z,10.56
2019-05-15T21:05:38.142Z,10.46
2019-05-15T21:10:43.024Z,10.44
2019-05-15T21:15:44.011Z,10.43
2019-05-15T21:20:48.200Z,10.45
2019-05-15T21:25:49.989Z,10.49
2019-05-15T21:30:52.196Z,10.50
2019-05-15T21:35:54.135Z,10.48
2019-05-15T21:40:58.450Z,10.45
2019-05-15T21:46:00.155Z,10.45
2019-05-15T21:51:02.261Z,10.46
2019-05-15T21:56:04.405Z,10.40
2019-05-15T22:01:08.140Z,10.42
2019-05-15T22:06:12.194Z,10.40
2019-05-15T22:11:14.229Z,10.37
2019-05-15T22:16:18.593Z,10.29
2019-05-15T22:21:20.758Z,10.29
2019-05-15T22:26:22.676Z,10.28
2019-05-15T22:31:24.909Z,10.23
2019-05-15T22:36:28.084Z,10.15
2019-05-15T22:41:30.383Z,10.11
2019-05-15T22:46:32.399Z,10.08
2019-05-15T22:51:38.071Z,10.04
2019-05-15T22:56:39.316Z,10.02
2019-05-15T23:01:41.369Z,9.95
2019-05-15T23:06:43.462Z,9.92
2019-05-15T23:11:48.439Z,9.89
2019-05-15T23:16:50.675Z,9.84
2019-05-15T23:21:52.628Z,9.82
2019-05-15T23:26:54.636Z,9.83
2019-05-15T23:31:58.403Z,9.79
2019-05-15T23:37:00.423Z,9.77
2019-05-15T23:42:02.452Z,9.75
2019-05-15T23:47:04.461Z,9.78
2019-05-15T23:52:08.958Z,9.77
2019-05-15T23:57:11.053Z,9.75
